Mitgliederbereich
Imprimable
Lapugnoy, 16/02/2014, FRA - Trail des Givrés
Liste der Berichte > 24km - Ergebnis
Suche: Seite: [1]
24 Eingaben
 
Les réclamations ne sont plus acceptées, les résultats sont considérés comme définitifs.
PlatzNrNameAgeNATMannschaftRealZeitTkmMoy.ScrStadt
1.464FMARTIN CAROLE42FRA2:16:292:16:495:43 10.53121LAMBERSART
2.139FJEROSCH HEIKE41FRAOLYMPIQUE AIRE SUR LA LYS2:27:252:27:366:09 9.76208ESTAIRES
3.420FBEHAGUE MATHILDE40FRALES FOULEES SAINGHINOISES2:28:312:28:316:12 9.70216HANTAY
4.84FFIEMS MIEKE46BELHERRIERE RUNNERS2:35:162:35:256:29 9.27267BRUGGE
5.399FDUMUR MARTINE49FRARUNNING CLUB HONDSCHOOTOI2:37:192:37:356:34 9.14294HONDSCHOOTE
6.250FSUEL MARIE-CHRISTINE45FRALES FOULES FLESSELLOISES2:38:282:38:536:38 9.06313SAISSEVAL
7.176FGRAVE SANDRINE42FRAJOGGAZELEC NPDC2:39:342:39:396:40 9.02327BEUGIN
8.514FDEVINEAUX NATHALIE41FRA2:39:342:39:426:40 9.02328
9.103FBERTE STEPHANIE40FRALONGUENESSE NATURE AVENTU2:40:292:40:426:42 8.96340SAINT OMER
10.167FLEROYER ARIANE48FRAPHILIPPIDÈS CLUB TEMPLEUV2:40:512:41:106:43 8.94342TEMPLEUVE
11.142FGRYMONPREZ SANDRINE47FRAOSA ATHLETISME2:41:212:41:316:44 8.92348BUSNES
12.418FGREGORCIC INGRID43FRAARTOIS ATHLÉTISME2:42:262:42:406:47 8.85361BRUAY LA BUISSIÈRE
13.287FDEFORGE CHRISTELLE40FRA2:43:532:44:136:51 8.77378MONTIGNY EN GOHELLE
14.261FLOUCHART SYLVIE40FRALES COUREURS DU LOUP BLAN2:46:492:47:016:58 8.62401ANNEQUIN
15.323FGALVAIRE VERONIQUE44FRAJOGGING CROSS BULLY2:46:552:47:116:58 8.61403ANGRES
16.427FGUILBERT CHANTAL45FRAOLYMPIQUE AIRE SUR LA LYS3:07:243:07:347:49 7.68440REBECQUES
17.137FROUSSEL ANNICK48FRA3:07:593:08:197:51 7.65445
18.489FSTANISZEWSKI CATHERINE44FRA3:10:323:10:477:57 7.55452
19.262FREEB VALÉRIE46FRAPLANETE RUNNING AUBIGNY3:11:523:12:128:01 7.49455MANIN
20.355FGADENNE STEPHANIE42FRA3:13:383:14:008:05 7.42460TOURCOING
21.218FLITREM CLAUDIE47FRAARTOIS ATHLETISME3:13:573:14:108:06 7.42461HAILLICOURT
22.180FGUYOT NELLY42FRAARTOIS ATHLETISME BRUAY3:13:573:14:118:06 7.42462CALONNE RICOUART
23.393FMEBARKI DOUDJA41FRA3:14:483:15:148:09 7.38463LA CIOTAT
24.148FDEWISME ISABELLE43FRACAL JOGGING HERLIES3:17:143:17:328:14 7.29466LA GORGUE
DNF: abandon; DSQ: disqualifié; Vitesse en km/h
Seite: [1]